createdAt,value
2022-07-28T00:03:14.881Z,101702.59
2022-07-28T00:08:30.784Z,101703.13
2022-07-28T00:13:46.751Z,101709.50
2022-07-28T00:19:02.506Z,101701.63
2022-07-28T00:24:17.523Z,101698.81
2022-07-28T00:29:49.850Z,101693.19
2022-07-28T00:35:08.139Z,101687.38
2022-07-28T00:40:24.733Z,101699.91
2022-07-28T00:45:40.805Z,101693.53
2022-07-28T00:50:56.515Z,101684.38
2022-07-28T00:56:11.774Z,101696.34
2022-07-28T01:01:27.515Z,101685.13
2022-07-28T01:06:42.758Z,101682.06
2022-07-28T01:11:58.461Z,101663.72
2022-07-28T01:17:13.721Z,101664.28
2022-07-28T01:22:29.461Z,101667.63
2022-07-28T01:27:44.526Z,101671.75
2022-07-28T01:32:59.491Z,101662.31
2022-07-28T01:38:14.508Z,101665.69
2022-07-28T01:43:29.529Z,101657.78
2022-07-28T01:48:44.843Z,101655.75
2022-07-28T01:54:00.494Z,101655.75
2022-07-28T01:59:15.772Z,101647.31
2022-07-28T02:04:31.467Z,101644.53
2022-07-28T02:09:46.887Z,101640.22
2022-07-28T02:15:02.782Z,101642.28
2022-07-28T02:20:18.470Z,101639.78
2022-07-28T02:25:33.767Z,101647.13
2022-07-28T02:30:49.510Z,101641.28
2022-07-28T02:36:04.473Z,101641.06
2022-07-28T02:41:21.491Z,101638.25
2022-07-28T02:46:36.509Z,101636.22
2022-07-28T02:51:51.280Z,101639.03
2022-07-28T02:57:06.751Z,101626.28
2022-07-28T03:02:22.785Z,101629.84
2022-07-28T03:07:43.754Z,101629.66
2022-07-28T03:13:06.800Z,101629.38
2022-07-28T03:18:22.881Z,101628.44
2022-07-28T03:23:38.750Z,101635.56
2022-07-28T03:28:54.525Z,101641.72
2022-07-28T03:34:09.826Z,101639.47
2022-07-28T03:39:25.826Z,101641.50
2022-07-28T03:44:47.546Z,101651.22
2022-07-28T03:50:03.069Z,101657.34
2022-07-28T03:55:18.464Z,101651.00
2022-07-28T04:00:33.522Z,101665.78
2022-07-28T04:05:48.775Z,101662.44
2022-07-28T04:11:04.549Z,101667.31
2022-07-28T04:16:19.523Z,101667.31
2022-07-28T04:21:37.480Z,101654.56
2022-07-28T04:26:52.520Z,101656.59
2022-07-28T04:32:08.708Z,101650.78
2022-07-28T04:37:24.770Z,101648.00
2022-07-28T04:42:40.803Z,101649.09
2022-07-28T04:47:56.768Z,101648.53
2022-07-28T04:53:12.477Z,101647.00
2022-07-28T04:58:27.659Z,101643.97
2022-07-28T05:03:46.789Z,101650.34
2022-07-28T05:09:02.541Z,101651.63
2022-07-28T05:14:17.895Z,101655.75
2022-07-28T05:19:33.477Z,101653.69
2022-07-28T05:24:48.802Z,101649.38
2022-07-28T05:30:04.771Z,101652.19
2022-07-28T05:35:20.484Z,101654.00
2022-07-28T05:40:35.457Z,101650.47
2022-07-28T05:45:50.832Z,101642.56
2022-07-28T05:51:06.517Z,101646.16
2022-07-28T05:56:21.540Z,101649.72
2022-07-28T06:01:36.624Z,101654.56
2022-07-28T06:06:51.472Z,101667.03
2022-07-28T06:12:06.857Z,101668.59
2022-07-28T06:17:22.250Z,101669.34
2022-07-28T06:22:37.474Z,101664.50
2022-07-28T06:27:52.518Z,101660.38
2022-07-28T06:33:07.794Z,101666.75
2022-07-28T06:38:23.790Z,101665.97
2022-07-28T06:43:39.849Z,101665.47
2022-07-28T06:48:55.801Z,101665.47
2022-07-28T06:54:11.717Z,101667.69
2022-07-28T06:59:27.496Z,101676.13
2022-07-28T07:04:42.532Z,101669.22
2022-07-28T07:09:57.550Z,101666.41
2022-07-28T07:15:12.873Z,101659.53
2022-07-28T07:20:28.490Z,101651.88
2022-07-28T07:25:43.541Z,101649.59
2022-07-28T07:30:58.527Z,101657.50
2022-07-28T07:36:13.524Z,101653.16
2022-07-28T07:41:28.483Z,101644.53
2022-07-28T07:46:46.897Z,101655.53
2022-07-28T07:52:02.848Z,101641.72
2022-07-28T07:57:18.820Z,101636.13
2022-07-28T08:02:34.466Z,101636.13
2022-07-28T08:07:49.508Z,101632.31
2022-07-28T08:13:04.502Z,101631.03
2022-07-28T08:18:19.499Z,101631.03
2022-07-28T08:23:34.797Z,101628.03
2022-07-28T08:28:50.829Z,101628.88
2022-07-28T08:34:28.473Z,101626.38
2022-07-28T08:39:41.513Z,101632.53
2022-07-28T08:44:56.800Z,101632.22
2022-07-28T08:50:13.613Z,101629.16
2022-07-28T08:55:31.964Z,101625.84
2022-07-28T09:00:47.589Z,101625.59
2022-07-28T09:06:02.557Z,101617.00
2022-07-28T09:11:17.567Z,101622.81
2022-07-28T09:16:32.857Z,101618.41
2022-07-28T09:21:48.773Z,101625.31
2022-07-28T09:27:04.471Z,101614.31
2022-07-28T09:32:19.512Z,101619.16
2022-07-28T09:37:34.521Z,101615.59
2022-07-28T09:42:49.511Z,101603.09
2022-07-28T09:48:04.617Z,101605.66
2022-07-28T09:53:19.515Z,101604.94
2022-07-28T09:58:34.513Z,101602.88
2022-07-28T10:03:50.891Z,101598.56
2022-07-28T10:09:06.878Z,101590.16
2022-07-28T10:14:22.527Z,101593.47
2022-07-28T10:19:40.495Z,101581.19
2022-07-28T10:24:55.538Z,101579.13
2022-07-28T10:30:10.499Z,101584.94
2022-07-28T10:35:25.509Z,101568.38
2022-07-28T10:40:40.487Z,101559.19
2022-07-28T10:46:05.743Z,101536.19
2022-07-28T10:51:22.226Z,101534.91
2022-07-28T10:56:43.518Z,101536.94
2022-07-28T11:02:00.641Z,101529.50
2022-07-28T11:07:16.801Z,101530.25
2022-07-28T11:12:32.539Z,101520.34
2022-07-28T11:17:47.898Z,101532.75
2022-07-28T11:23:03.840Z,101527.34
2022-07-28T11:28:23.590Z,101517.63
2022-07-28T11:33:38.506Z,101517.63
2022-07-28T11:39:02.576Z,101521.94
2022-07-28T11:44:17.582Z,101516.53
2022-07-28T11:49:34.590Z,101504.22
2022-07-28T11:54:49.829Z,101499.38
2022-07-28T12:00:05.799Z,101493.75
2022-07-28T12:05:23.820Z,101504.78
2022-07-28T12:10:54.599Z,101497.13
2022-07-28T12:16:10.574Z,101501.97
2022-07-28T12:21:25.741Z,101495.09
2022-07-28T12:26:43.599Z,101488.38
2022-07-28T12:31:58.576Z,101482.22
2022-07-28T12:37:13.507Z,101470.66
2022-07-28T12:42:28.517Z,101472.91
2022-07-28T12:47:43.525Z,101466.78
2022-07-28T12:52:58.560Z,101456.31
2022-07-28T12:58:13.652Z,101440.41
2022-07-28T13:03:29.541Z,101432.19
2022-07-28T13:08:45.122Z,101443.41
2022-07-28T13:14:00.570Z,101436.50
2022-07-28T13:19:15.530Z,101440.28
2022-07-28T13:24:31.534Z,101444.06
2022-07-28T13:29:46.779Z,101440.69
2022-07-28T13:35:02.501Z,101429.69
2022-07-28T13:40:17.901Z,101424.28
2022-07-28T13:45:33.937Z,101423.19
2022-07-28T13:50:51.527Z,101435.16
2022-07-28T13:56:06.495Z,101417.78
2022-07-28T14:01:21.927Z,101409.34
2022-07-28T14:06:37.821Z,101410.88
2022-07-28T14:11:54.366Z,101401.88
2022-07-28T14:17:32.507Z,101404.16
2022-07-28T14:22:44.561Z,101408.69
2022-07-28T14:28:01.829Z,101398.38
2022-07-28T14:33:17.510Z,101398.56
2022-07-28T14:38:52.457Z,101400.09
2022-07-28T14:44:07.510Z,101406.69
2022-07-28T14:49:30.816Z,101398.47
2022-07-28T14:54:46.524Z,101399.94
2022-07-28T15:00:01.528Z,101397.38
2022-07-28T15:05:16.599Z,101384.81
2022-07-28T15:10:31.838Z,101380.72
2022-07-28T15:15:47.872Z,101378.66
2022-07-28T15:21:03.602Z,101382.22
2022-07-28T15:26:18.274Z,101378.31
2022-07-28T15:31:33.633Z,101372.69
2022-07-28T15:36:48.531Z,101367.84
2022-07-28T15:42:03.682Z,101372.16
2022-07-28T15:47:18.564Z,101362.97
2022-07-28T15:52:33.512Z,101358.44
2022-07-28T15:57:48.858Z,101366.88
2022-07-28T16:03:04.630Z,101368.72
2022-07-28T16:08:22.732Z,101378.47
2022-07-28T16:13:38.529Z,101377.16
2022-07-28T16:18:57.393Z,101372.88
2022-07-28T16:24:15.060Z,101363.69
2022-07-28T16:29:31.532Z,101371.31
2022-07-28T16:34:46.546Z,101367.75
2022-07-28T16:40:01.553Z,101363.44
2022-07-28T16:45:16.563Z,101359.88
2022-07-28T16:50:31.523Z,101359.16
2022-07-28T16:55:46.568Z,101358.41
2022-07-28T17:01:01.554Z,101356.34
2022-07-28T17:06:17.537Z,101340.94
2022-07-28T17:11:32.544Z,101344.91
2022-07-28T17:16:47.589Z,101353.91
2022-07-28T17:22:02.846Z,101346.00
2022-07-28T17:27:38.231Z,101348.28
2022-07-28T17:32:53.542Z,101353.16
2022-07-28T17:38:08.567Z,101355.94
2022-07-28T17:43:23.518Z,101352.34
2022-07-28T17:48:38.616Z,101357.22
2022-07-28T17:53:54.200Z,101346.75
2022-07-28T17:59:10.549Z,101339.63
2022-07-28T18:04:25.554Z,101349.38
2022-07-28T18:09:40.834Z,101347.31
2022-07-28T18:14:56.910Z,101349.38
2022-07-28T18:20:12.870Z,101341.69
2022-07-28T18:25:28.838Z,101346.56
2022-07-28T18:30:44.628Z,101343.75
2022-07-28T18:35:59.523Z,101348.63
2022-07-28T18:41:14.890Z,101353.47
2022-07-28T18:46:30.883Z,101352.72
2022-07-28T18:51:46.855Z,101358.16
2022-07-28T18:57:02.916Z,101354.03
2022-07-28T19:02:18.729Z,101357.56
2022-07-28T19:07:34.846Z,101351.97
2022-07-28T19:12:50.947Z,101363.19
2022-07-28T19:18:10.255Z,101368.09
2022-07-28T19:23:26.562Z,101375.00
2022-07-28T19:28:41.582Z,101383.41
2022-07-28T19:33:56.554Z,101377.59
2022-07-28T19:39:49.861Z,101387.84
2022-07-28T19:45:05.547Z,101391.97
2022-07-28T19:50:20.604Z,101405.25
2022-07-28T19:55:36.235Z,101394.56
2022-07-28T20:00:51.908Z,101398.66
2022-07-28T20:06:07.721Z,101397.16
2022-07-28T20:11:23.620Z,101395.66
2022-07-28T20:16:38.624Z,101407.63
2022-07-28T20:21:53.559Z,101412.50
2022-07-28T20:27:08.546Z,101410.25
2022-07-28T20:32:23.549Z,101407.97
2022-07-28T20:37:39.538Z,101413.59
2022-07-28T20:42:54.553Z,101411.34
2022-07-28T20:48:09.533Z,101413.38
2022-07-28T20:53:29.857Z,101403.44
2022-07-28T20:58:45.558Z,101408.31
2022-07-28T21:04:00.546Z,101411.09
2022-07-28T21:09:15.912Z,101423.09
2022-07-28T21:14:31.555Z,101425.16
2022-07-28T21:19:51.322Z,101421.63
2022-07-28T21:25:08.845Z,101428.50
2022-07-28T21:30:27.794Z,101435.44
2022-07-28T21:35:43.815Z,101427.56
2022-07-28T21:40:59.558Z,101421.19
2022-07-28T21:46:14.740Z,101430.88
2022-07-28T21:51:29.857Z,101432.19
2022-07-28T21:56:45.887Z,101425.63
2022-07-28T22:02:01.900Z,101426.94
2022-07-28T22:07:17.921Z,101421.09
2022-07-28T22:12:33.537Z,101418.28
2022-07-28T22:17:48.571Z,101409.88
2022-07-28T22:23:03.541Z,101419.59
2022-07-28T22:28:33.865Z,101417.34
2022-07-28T22:33:49.587Z,101430.06
2022-07-28T22:39:04.605Z,101427.81
2022-07-28T22:44:19.966Z,101421.44
2022-07-28T22:49:35.572Z,101434.72
2022-07-28T23:00:22.959Z,101432.47
2022-07-28T23:05:38.931Z,101432.97
2022-07-28T23:10:54.963Z,101427.38
2022-07-28T23:16:10.780Z,101423.06
2022-07-28T23:21:26.603Z,101425.88
2022-07-28T23:26:41.953Z,101424.56
2022-07-28T23:31:58.022Z,101427.94
2022-07-28T23:37:13.978Z,101428.47
2022-07-28T23:42:29.970Z,101433.53
2022-07-28T23:47:46.002Z,101432.78
2022-07-28T23:53:01.966Z,101428.47
2022-07-28T23:58:17.641Z,101421.38
